createdAt,value
2022-11-05T00:00:35.534Z,13.67
2022-11-05T00:03:20.890Z,14.43
2022-11-05T00:06:08.664Z,14.60
2022-11-05T00:08:54.092Z,14.10
2022-11-05T00:11:40.674Z,14.33
2022-11-05T00:14:25.689Z,14.47
2022-11-05T00:16:52.132Z,13.47
2022-11-05T00:19:18.597Z,14.13
2022-11-05T00:22:03.581Z,14.37
2022-11-05T00:24:48.686Z,14.83
2022-11-05T00:27:15.183Z,13.37
2022-11-05T00:29:41.609Z,13.53
2022-11-05T00:32:08.124Z,14.73
2022-11-05T00:34:34.690Z,13.30
2022-11-05T00:37:01.268Z,13.50
2022-11-05T00:39:27.836Z,14.30
2022-11-05T00:42:13.256Z,14.27
2022-11-05T00:44:57.968Z,14.10
2022-11-05T00:47:43.421Z,13.30
2022-11-05T00:50:10.680Z,13.77
2022-11-05T00:52:56.332Z,13.77
2022-11-05T00:55:28.993Z,15.23
2022-11-05T00:57:56.907Z,14.23
2022-11-05T01:00:25.235Z,14.07
2022-11-05T01:02:52.226Z,14.93
2022-11-05T01:05:18.939Z,14.43
2022-11-05T01:07:45.676Z,14.93
2022-11-05T01:10:12.163Z,13.87
2022-11-05T01:12:38.681Z,13.57
2022-11-05T01:15:06.219Z,14.87
2022-11-05T01:17:32.706Z,14.03
2022-11-05T01:19:59.561Z,13.67
2022-11-05T01:22:26.067Z,14.23
2022-11-05T01:24:52.674Z,13.97
2022-11-05T01:27:19.285Z,13.20
2022-11-05T01:29:45.733Z,13.03
2022-11-05T01:32:12.211Z,12.27
2022-11-05T01:34:38.681Z,12.93
2022-11-05T01:37:05.172Z,12.97
2022-11-05T01:39:31.746Z,13.13
2022-11-05T01:41:58.959Z,11.90
2022-11-05T01:44:53.397Z,11.87
2022-11-05T01:47:25.957Z,11.60
2022-11-05T01:49:53.088Z,11.97
2022-11-05T01:52:21.143Z,12.10
2022-11-05T01:54:47.950Z,12.20
2022-11-05T01:57:14.823Z,12.40
2022-11-05T01:59:47.240Z,11.67
2022-11-05T02:02:14.088Z,11.87
2022-11-05T02:04:48.712Z,11.47
2022-11-05T02:07:15.617Z,11.83
2022-11-05T02:09:51.285Z,10.93
2022-11-05T02:12:18.504Z,12.13
2022-11-05T02:14:44.966Z,12.30
2022-11-05T02:17:22.867Z,12.03
2022-11-05T02:20:11.322Z,12.23
2022-11-05T02:23:06.745Z,11.03
2022-11-05T02:26:20.296Z,10.97
2022-11-05T02:29:22.252Z,11.47
2022-11-05T02:32:13.864Z,10.90
2022-11-05T02:35:01.778Z,10.83
2022-11-05T02:37:40.847Z,10.47
2022-11-05T02:40:19.501Z,11.10
2022-11-05T02:43:02.837Z,10.47
2022-11-05T02:46:02.688Z,10.20
2022-11-05T02:48:49.072Z,11.20
2022-11-05T02:51:31.893Z,10.47
2022-11-05T02:54:16.227Z,10.07
2022-11-05T02:56:48.418Z,11.33
2022-11-05T02:59:14.911Z,10.07
2022-11-05T03:01:43.976Z,9.53
2022-11-05T03:04:13.322Z,9.67
2022-11-05T03:06:55.138Z,9.97
2022-11-05T03:09:33.971Z,9.13
2022-11-05T03:12:22.039Z,9.40
2022-11-05T03:15:16.507Z,9.57
2022-11-05T03:17:48.609Z,9.47
2022-11-05T03:20:19.243Z,10.27
2022-11-05T03:22:59.690Z,9.93
2022-11-05T03:25:29.123Z,8.77
2022-11-05T03:28:05.315Z,9.27
2022-11-05T03:30:33.775Z,9.03
2022-11-05T03:33:13.590Z,9.37
2022-11-05T03:35:46.543Z,10.17
2022-11-05T03:38:19.670Z,9.90
2022-11-05T03:40:49.456Z,9.17
2022-11-05T03:43:17.551Z,9.37
2022-11-05T03:45:50.473Z,8.93
2022-11-05T03:48:19.328Z,8.53
2022-11-05T03:51:12.642Z,8.80
2022-11-05T03:54:05.626Z,8.20
2022-11-05T03:56:35.005Z,8.57
2022-11-05T03:59:04.488Z,7.77
2022-11-05T04:01:31.883Z,7.33
2022-11-05T04:03:58.743Z,8.10
2022-11-05T04:06:43.839Z,6.93
2022-11-05T04:09:29.218Z,6.93
2022-11-05T04:12:14.153Z,7.37
2022-11-05T04:14:40.576Z,6.87
2022-11-05T04:17:07.128Z,6.93
2022-11-05T04:19:53.201Z,6.47
2022-11-05T04:22:38.579Z,7.23
2022-11-05T04:25:05.200Z,6.77
2022-11-05T04:27:31.921Z,6.03
2022-11-05T04:30:16.739Z,6.87
2022-11-05T04:32:43.195Z,6.70
2022-11-05T04:35:09.620Z,6.63
2022-11-05T04:37:36.089Z,7.70
2022-11-05T04:40:02.517Z,6.53
2022-11-05T04:42:29.400Z,6.60
2022-11-05T04:44:55.855Z,6.70
2022-11-05T04:47:22.410Z,6.70
2022-11-05T04:49:48.932Z,6.53
2022-11-05T04:52:15.515Z,6.80
2022-11-05T04:54:41.950Z,6.60
2022-11-05T04:57:08.540Z,6.83
2022-11-05T04:59:35.036Z,6.27
2022-11-05T05:02:02.531Z,6.90
2022-11-05T05:04:29.232Z,6.33
2022-11-05T05:06:55.746Z,6.30
2022-11-05T05:09:22.417Z,6.10
2022-11-05T05:11:48.819Z,6.20
2022-11-05T05:14:15.298Z,6.47
2022-11-05T05:16:41.758Z,6.53
2022-11-05T05:19:08.372Z,5.93
2022-11-05T05:21:41.091Z,6.00
2022-11-05T05:24:16.164Z,6.63
2022-11-05T05:26:45.299Z,6.73
2022-11-05T05:29:12.286Z,6.00
2022-11-05T05:31:38.933Z,6.47
2022-11-05T05:34:06.542Z,6.33
2022-11-05T05:36:33.582Z,6.20
2022-11-05T05:39:00.258Z,5.90
2022-11-05T05:41:27.939Z,5.90
2022-11-05T05:43:54.489Z,6.70
2022-11-05T05:46:20.930Z,6.63
2022-11-05T05:48:51.926Z,6.27
2022-11-05T05:51:18.983Z,6.17
2022-11-05T05:53:45.568Z,6.60
2022-11-05T05:56:14.868Z,6.77
2022-11-05T05:58:41.796Z,5.80
2022-11-05T06:01:17.420Z,6.20
2022-11-05T06:03:45.607Z,6.40
2022-11-05T06:06:14.008Z,6.67
2022-11-05T06:08:40.992Z,6.87
2022-11-05T06:11:08.519Z,6.60
2022-11-05T06:13:36.467Z,7.23
2022-11-05T06:16:05.051Z,7.10
2022-11-05T06:18:32.425Z,7.63
2022-11-05T06:21:10.112Z,7.97
2022-11-05T06:23:38.089Z,7.57
2022-11-05T06:26:07.534Z,8.43
2022-11-05T06:28:34.744Z,8.23
2022-11-05T06:31:02.282Z,8.13
2022-11-05T06:33:29.404Z,7.90
2022-11-05T06:35:59.469Z,8.63
2022-11-05T06:38:26.040Z,8.30
2022-11-05T06:40:52.536Z,8.03
2022-11-05T06:43:19.007Z,8.10
2022-11-05T06:45:45.480Z,8.43
2022-11-05T06:48:11.943Z,7.60
2022-11-05T06:50:38.430Z,9.07
2022-11-05T06:53:05.426Z,8.90
2022-11-05T06:55:32.188Z,8.30
2022-11-05T06:57:59.028Z,8.50
2022-11-05T07:00:25.855Z,8.00
2022-11-05T07:02:52.317Z,9.57
2022-11-05T07:05:18.774Z,8.53
2022-11-05T07:07:45.779Z,9.63
2022-11-05T07:10:14.939Z,9.20
2022-11-05T07:12:41.807Z,8.73
2022-11-05T07:15:09.478Z,9.70
2022-11-05T07:17:35.988Z,8.67
2022-11-05T07:20:03.766Z,8.83
2022-11-05T07:22:30.425Z,9.73
2022-11-05T07:24:57.057Z,9.27
2022-11-05T07:27:23.565Z,8.50
2022-11-05T07:29:50.031Z,9.63
2022-11-05T07:32:16.524Z,9.80
2022-11-05T07:34:43.039Z,10.17
2022-11-05T07:37:09.650Z,9.83
2022-11-05T07:39:36.104Z,10.30
2022-11-05T07:42:02.760Z,10.43
2022-11-05T07:44:33.062Z,10.60
2022-11-05T07:46:59.773Z,10.87
2022-11-05T07:49:26.255Z,10.07
2022-11-05T07:51:53.579Z,10.43
2022-11-05T07:54:20.071Z,11.57
2022-11-05T07:56:47.938Z,12.10
2022-11-05T07:59:14.375Z,11.93
2022-11-05T08:01:41.046Z,11.93
2022-11-05T08:04:07.568Z,11.40
2022-11-05T08:06:34.104Z,11.53
2022-11-05T08:09:00.903Z,12.20
2022-11-05T08:11:27.863Z,12.37
2022-11-05T08:13:54.522Z,11.87
2022-11-05T08:16:20.963Z,12.00
2022-11-05T08:18:48.252Z,12.43
2022-11-05T08:21:14.853Z,11.90
2022-11-05T08:23:42.846Z,13.37
2022-11-05T08:26:09.989Z,12.70
2022-11-05T08:28:36.424Z,12.83
2022-11-05T08:31:02.915Z,12.17
2022-11-05T08:33:31.416Z,13.20
2022-11-05T08:36:03.334Z,13.47
2022-11-05T08:38:30.528Z,12.60
2022-11-05T08:40:58.659Z,13.20
2022-11-05T08:43:25.421Z,13.07
2022-11-05T08:45:52.063Z,13.17
2022-11-05T08:48:19.483Z,13.90
2022-11-05T08:50:47.751Z,13.77
2022-11-05T08:53:15.462Z,13.97
2022-11-05T08:55:43.807Z,14.53
2022-11-05T08:58:15.065Z,14.00
2022-11-05T09:00:42.204Z,14.57
2022-11-05T09:03:10.521Z,13.97
2022-11-05T09:05:39.622Z,13.63
2022-11-05T09:08:18.483Z,13.63
2022-11-05T09:10:46.472Z,13.57
2022-11-05T09:13:18.384Z,13.47
2022-11-05T09:15:47.656Z,12.53
2022-11-05T09:18:15.096Z,12.27
2022-11-05T09:20:42.249Z,11.87
2022-11-05T09:23:11.102Z,12.33
2022-11-05T09:25:37.773Z,12.03
2022-11-05T09:28:18.029Z,12.10
2022-11-05T09:30:48.250Z,11.60
2022-11-05T09:33:16.172Z,11.90
2022-11-05T09:35:42.763Z,11.30
2022-11-05T09:38:09.845Z,11.23
2022-11-05T09:40:44.759Z,10.87
2022-11-05T09:43:19.659Z,11.23
2022-11-05T09:45:51.240Z,11.00
2022-11-05T09:48:22.019Z,11.03
2022-11-05T09:50:48.630Z,11.67
2022-11-05T09:53:19.039Z,10.07
2022-11-05T09:55:49.140Z,11.33
2022-11-05T09:58:28.519Z,8.77
2022-11-05T10:00:57.233Z,7.87
2022-11-05T10:03:26.220Z,7.40
2022-11-05T10:05:54.448Z,8.27
2022-11-05T10:08:25.710Z,8.77
2022-11-05T10:11:03.629Z,8.53
2022-11-05T10:13:50.541Z,9.10
2022-11-05T10:16:27.550Z,8.50
2022-11-05T10:19:06.060Z,8.17
2022-11-05T10:22:04.139Z,8.37
2022-11-05T10:24:20.999Z,8.53
2022-11-05T10:26:50.497Z,8.73
2022-11-05T10:29:25.573Z,8.47
2022-11-05T10:31:54.362Z,9.30
2022-11-05T10:34:23.776Z,10.03
2022-11-05T10:36:50.261Z,9.07
2022-11-05T10:39:18.702Z,8.13
2022-11-05T10:42:04.023Z,9.37
2022-11-05T10:44:39.826Z,8.23
2022-11-05T10:47:25.639Z,8.03
2022-11-05T10:50:05.068Z,8.70
2022-11-05T10:52:34.513Z,8.33
2022-11-05T10:55:04.905Z,8.03
2022-11-05T10:57:38.252Z,8.73
2022-11-05T11:00:17.902Z,9.37
2022-11-05T11:02:49.189Z,8.80
2022-11-05T11:05:27.112Z,9.03
2022-11-05T11:08:07.726Z,8.40
2022-11-05T11:11:02.432Z,8.60
2022-11-05T11:13:50.536Z,11.30
2022-11-05T11:16:22.365Z,9.10
2022-11-05T11:19:03.237Z,10.00
2022-11-05T11:21:31.736Z,9.63
2022-11-05T11:24:06.957Z,10.20
2022-11-05T11:26:40.229Z,10.13
2022-11-05T11:29:12.769Z,10.40
2022-11-05T11:31:40.358Z,11.20
2022-11-05T11:34:28.846Z,11.03
2022-11-05T11:37:12.852Z,12.57
2022-11-05T11:39:47.151Z,12.53
2022-11-05T11:42:27.328Z,12.23
2022-11-05T11:44:54.309Z,11.30
2022-11-05T11:47:22.233Z,12.50
2022-11-05T11:50:00.672Z,12.07
2022-11-05T11:52:35.870Z,12.27
2022-11-05T11:55:11.675Z,12.73
2022-11-05T11:57:50.065Z,12.23
2022-11-05T12:00:18.583Z,12.50
2022-11-05T12:03:20.367Z,13.23
2022-11-05T12:06:06.137Z,12.37
2022-11-05T12:09:05.182Z,13.10
2022-11-05T12:12:03.141Z,12.67
2022-11-05T12:14:58.059Z,12.57
2022-11-05T12:17:46.396Z,13.47
2022-11-05T12:20:32.027Z,13.27
2022-11-05T12:23:12.717Z,12.47
2022-11-05T12:25:48.831Z,13.60
2022-11-05T12:29:17.378Z,12.43
2022-11-05T12:31:52.531Z,12.23
2022-11-05T12:34:37.453Z,13.30
2022-11-05T12:37:34.716Z,12.87
2022-11-05T12:40:19.336Z,11.83
2022-11-05T12:43:09.065Z,11.97
2022-11-05T12:45:51.150Z,11.30
2022-11-05T12:48:39.296Z,11.17
2022-11-05T12:51:27.386Z,11.27
2022-11-05T12:54:04.814Z,10.93
2022-11-05T12:56:38.111Z,10.57
2022-11-05T12:59:36.114Z,10.70
2022-11-05T13:02:36.010Z,10.10
2022-11-05T13:05:13.943Z,10.17
2022-11-05T13:07:53.223Z,9.47
2022-11-05T13:10:35.183Z,10.03
2022-11-05T13:13:12.152Z,10.30
2022-11-05T13:15:49.523Z,9.60
2022-11-05T13:18:24.084Z,9.17
2022-11-05T13:20:53.925Z,9.10
2022-11-05T13:23:29.817Z,9.23
2022-11-05T13:26:02.703Z,9.20
2022-11-05T13:28:35.344Z,8.80
2022-11-05T13:31:06.406Z,9.20
2022-11-05T13:33:36.450Z,8.23
2022-11-05T13:36:33.239Z,7.70
2022-11-05T13:39:13.740Z,6.63
2022-11-05T13:42:06.057Z,6.10
2022-11-05T13:45:02.351Z,5.70
2022-11-05T13:47:35.026Z,6.40
2022-11-05T13:50:40.792Z,5.67
2022-11-05T13:53:28.849Z,5.83
2022-11-05T13:56:33.538Z,5.70
2022-11-05T13:59:18.569Z,5.57
2022-11-05T14:02:18.651Z,5.70
2022-11-05T14:04:49.144Z,4.67
2022-11-05T14:07:23.750Z,5.43
2022-11-05T14:09:57.615Z,4.90
2022-11-05T14:12:29.385Z,5.27
2022-11-05T14:15:09.339Z,4.87
2022-11-05T14:17:58.000Z,4.70
2022-11-05T14:20:30.748Z,4.83
2022-11-05T14:23:25.376Z,4.60
2022-11-05T14:25:55.851Z,4.97
2022-11-05T14:28:28.285Z,4.47
2022-11-05T14:30:55.164Z,4.73
2022-11-05T14:33:24.535Z,4.93
2022-11-05T14:36:14.331Z,4.93
2022-11-05T14:38:52.141Z,5.67
2022-11-05T14:41:20.278Z,5.27
2022-11-05T14:43:58.816Z,5.23
2022-11-05T14:46:39.405Z,5.73
2022-11-05T14:49:09.702Z,5.13
2022-11-05T14:51:39.885Z,5.40
2022-11-05T14:54:24.845Z,5.33
2022-11-05T14:56:56.495Z,5.53
2022-11-05T14:59:29.070Z,4.73
2022-11-05T15:02:17.789Z,5.10
2022-11-05T15:04:45.586Z,4.90
2022-11-05T15:07:31.772Z,5.70
2022-11-05T15:10:14.083Z,6.60
2022-11-05T15:12:52.611Z,7.17
2022-11-05T15:15:23.644Z,5.60
2022-11-05T15:18:00.676Z,7.00
2022-11-05T15:20:39.950Z,6.40
2022-11-05T15:23:12.739Z,5.90
2022-11-05T15:25:53.240Z,6.30
2022-11-05T15:28:27.344Z,5.50
2022-11-05T15:31:14.438Z,5.37
2022-11-05T15:33:42.322Z,5.23
2022-11-05T15:36:31.260Z,4.87
2022-11-05T15:39:28.003Z,4.70
2022-11-05T15:41:46.784Z,4.60
2022-11-05T15:44:37.876Z,5.33
2022-11-05T15:47:26.221Z,5.50
2022-11-05T15:50:14.973Z,6.07
2022-11-05T15:52:53.766Z,5.73
2022-11-05T15:55:20.357Z,6.30
2022-11-05T15:57:56.973Z,5.97
2022-11-05T16:00:28.549Z,5.83
2022-11-05T16:03:17.556Z,5.67
2022-11-05T16:05:46.294Z,5.33
2022-11-05T16:08:20.637Z,5.47
2022-11-05T16:10:55.645Z,6.10
2022-11-05T16:13:33.728Z,6.03
2022-11-05T16:16:03.365Z,6.13
2022-11-05T16:18:40.414Z,6.30
2022-11-05T16:21:08.409Z,6.03
2022-11-05T16:23:43.245Z,6.07
2022-11-05T16:27:01.798Z,5.30
2022-11-05T16:29:31.185Z,6.07
2022-11-05T16:32:00.257Z,6.30
2022-11-05T16:34:35.760Z,6.00
2022-11-05T16:37:03.255Z,6.37
2022-11-05T16:39:29.932Z,7.30
2022-11-05T16:41:56.387Z,6.40
2022-11-05T16:44:23.018Z,6.23
2022-11-05T16:46:50.327Z,6.23
2022-11-05T16:49:17.426Z,6.17
2022-11-05T16:51:44.061Z,6.47
2022-11-05T16:54:10.723Z,6.30
2022-11-05T16:56:37.238Z,6.00
2022-11-05T16:59:04.366Z,6.33
2022-11-05T17:01:31.933Z,6.40
2022-11-05T17:03:59.200Z,7.33
2022-11-05T17:06:25.773Z,8.30
2022-11-05T17:08:52.225Z,9.50
2022-11-05T17:11:20.666Z,9.13
2022-11-05T17:13:47.559Z,8.47
2022-11-05T17:16:17.372Z,7.70
2022-11-05T17:18:44.364Z,7.17
2022-11-05T17:21:11.173Z,7.27
2022-11-05T17:23:37.888Z,7.10
2022-11-05T17:26:08.027Z,7.33
2022-11-05T17:28:35.196Z,6.70
2022-11-05T17:31:04.463Z,6.40
2022-11-05T17:33:31.599Z,6.70
2022-11-05T17:35:58.211Z,7.07
2022-11-05T17:38:25.945Z,6.40
2022-11-05T17:40:53.317Z,7.17
2022-11-05T17:43:20.283Z,6.10
2022-11-05T17:45:49.468Z,6.27
2022-11-05T17:48:16.931Z,7.17
2022-11-05T17:50:45.560Z,8.17
2022-11-05T17:53:13.066Z,8.67
2022-11-05T17:55:41.573Z,6.60
2022-11-05T17:58:08.385Z,6.20
2022-11-05T18:00:35.849Z,6.70
2022-11-05T18:03:02.513Z,7.03
2022-11-05T18:05:30.902Z,7.10
2022-11-05T18:07:57.833Z,6.77
2022-11-05T18:10:25.224Z,7.50
2022-11-05T18:12:52.114Z,7.33
2022-11-05T18:15:18.616Z,7.83
2022-11-05T18:17:46.307Z,8.10
2022-11-05T18:20:18.948Z,6.60
2022-11-05T18:22:48.053Z,5.77
2022-11-05T18:25:14.601Z,6.37
2022-11-05T18:27:41.284Z,7.07
2022-11-05T18:30:09.333Z,6.47
2022-11-05T18:32:35.964Z,6.77
2022-11-05T18:35:03.032Z,5.60
2022-11-05T18:37:29.455Z,6.27
2022-11-05T18:39:55.928Z,6.40
2022-11-05T18:42:22.791Z,6.33
2022-11-05T18:44:49.293Z,5.70
2022-11-05T18:47:15.758Z,5.80
2022-11-05T18:49:42.339Z,5.00
2022-11-05T18:52:08.812Z,5.37
2022-11-05T18:54:35.508Z,4.83
2022-11-05T18:57:02.648Z,5.23
2022-11-05T18:59:39.063Z,6.27
2022-11-05T19:02:07.873Z,6.10
2022-11-05T19:04:37.454Z,5.97
2022-11-05T19:07:05.964Z,7.57
2022-11-05T19:09:37.407Z,6.10
2022-11-05T19:12:05.745Z,5.77
2022-11-05T19:14:32.974Z,4.97
2022-11-05T19:17:00.796Z,5.00
2022-11-05T19:19:28.127Z,5.17
2022-11-05T19:21:54.684Z,4.77
2022-11-05T19:24:21.152Z,5.47
2022-11-05T19:26:48.021Z,5.40
2022-11-05T19:29:14.566Z,5.50
2022-11-05T19:31:41.053Z,5.23
2022-11-05T19:34:07.614Z,5.00
2022-11-05T19:36:34.652Z,4.70
2022-11-05T19:39:06.237Z,5.03
2022-11-05T19:41:33.049Z,4.57
2022-11-05T19:44:01.428Z,4.80
2022-11-05T19:46:28.953Z,5.10
2022-11-05T19:48:56.205Z,5.27
2022-11-05T19:51:25.488Z,5.07
2022-11-05T19:53:52.980Z,5.10
2022-11-05T19:56:22.045Z,5.97
2022-11-05T19:58:49.128Z,5.37
2022-11-05T20:01:17.046Z,5.50
2022-11-05T20:03:44.018Z,5.20
2022-11-05T20:06:13.037Z,5.60
2022-11-05T20:09:06.671Z,5.83
2022-11-05T20:11:28.228Z,6.30
2022-11-05T20:13:54.724Z,5.93
2022-11-05T20:16:25.924Z,5.93
2022-11-05T20:18:52.507Z,7.57
2022-11-05T20:21:19.365Z,7.13
2022-11-05T20:23:47.153Z,5.87
2022-11-05T20:26:14.610Z,6.57
2022-11-05T20:28:42.835Z,5.70
2022-11-05T20:31:13.040Z,5.67
2022-11-05T20:33:40.744Z,6.50
2022-11-05T20:36:10.087Z,5.50
2022-11-05T20:38:36.543Z,5.50
2022-11-05T20:41:08.104Z,5.60
2022-11-05T20:43:35.576Z,5.10
2022-11-05T20:46:03.065Z,5.47
2022-11-05T20:48:34.378Z,4.30
2022-11-05T20:51:06.571Z,4.97
2022-11-05T20:53:33.319Z,4.90
2022-11-05T20:56:02.517Z,5.60
2022-11-05T20:58:33.384Z,5.07
2022-11-05T21:01:00.162Z,5.13
2022-11-05T21:03:27.968Z,4.73
2022-11-05T21:05:59.778Z,4.93
2022-11-05T21:08:27.949Z,5.00
2022-11-05T21:10:55.965Z,4.67
2022-11-05T21:13:23.443Z,4.43
2022-11-05T21:15:52.340Z,4.60
2022-11-05T21:18:20.648Z,4.03
2022-11-05T21:20:47.818Z,4.33
2022-11-05T21:23:15.385Z,4.50
2022-11-05T21:25:43.254Z,4.20
2022-11-05T21:28:11.546Z,3.77
2022-11-05T21:30:41.596Z,4.30
2022-11-05T21:33:08.969Z,3.90
2022-11-05T21:35:39.821Z,3.77
2022-11-05T21:38:06.778Z,4.30
2022-11-05T21:40:33.419Z,4.30
2022-11-05T21:43:00.108Z,4.50
2022-11-05T21:45:28.116Z,4.90
2022-11-05T21:47:54.706Z,4.97
2022-11-05T21:50:41.247Z,5.00
2022-11-05T21:53:32.222Z,4.43
2022-11-05T21:56:18.327Z,3.90
2022-11-05T21:59:03.428Z,3.70
2022-11-05T22:01:30.096Z,4.20
2022-11-05T22:04:01.876Z,3.97
2022-11-05T22:06:32.601Z,4.50
2022-11-05T22:08:59.419Z,4.50
2022-11-05T22:11:26.047Z,3.67
2022-11-05T22:13:53.444Z,3.83
2022-11-05T22:16:19.952Z,4.20
2022-11-05T22:18:46.389Z,3.90
2022-11-05T22:21:19.126Z,4.20
2022-11-05T22:23:45.780Z,4.70
2022-11-05T22:26:12.457Z,4.90
2022-11-05T22:28:38.987Z,3.80
2022-11-05T22:31:12.372Z,4.10
2022-11-05T22:33:38.889Z,4.07
2022-11-05T22:36:05.779Z,3.80
2022-11-05T22:38:32.301Z,3.83
2022-11-05T22:40:59.454Z,3.90
2022-11-05T22:43:26.016Z,3.70
2022-11-05T22:45:52.487Z,3.70
2022-11-05T22:48:18.901Z,4.00
2022-11-05T22:50:45.396Z,4.20
2022-11-05T22:53:11.852Z,3.97
2022-11-05T22:55:41.069Z,3.90
2022-11-05T22:58:07.553Z,3.43
2022-11-05T23:00:36.929Z,3.80
2022-11-05T23:03:03.924Z,4.13
2022-11-05T23:05:30.681Z,3.80
2022-11-05T23:08:16.032Z,3.70
2022-11-05T23:11:04.263Z,3.43
2022-11-05T23:13:30.874Z,4.17
2022-11-05T23:16:15.713Z,4.00
2022-11-05T23:19:01.031Z,4.13
2022-11-05T23:21:46.131Z,3.67
2022-11-05T23:24:13.460Z,4.10
2022-11-05T23:26:52.599Z,3.73
2022-11-05T23:29:21.909Z,3.60
2022-11-05T23:32:07.188Z,3.83
2022-11-05T23:34:33.708Z,3.87
2022-11-05T23:37:19.099Z,3.70
2022-11-05T23:39:45.635Z,3.80
2022-11-05T23:42:31.448Z,3.70
2022-11-05T23:45:16.689Z,3.57
2022-11-05T23:48:01.600Z,3.90
2022-11-05T23:50:29.392Z,3.40
2022-11-05T23:52:56.200Z,4.00
2022-11-05T23:55:23.461Z,3.57
2022-11-05T23:57:50.310Z,3.83
